sensor_id;sensor_type;location;lat;lon;timestamp;pressure;altitude;pressure_sealevel;temperature;humidity
61963;BME280;47927;42.646;23.096;2023-05-08T00:00:01;92268.72;;;12.11;58.43
61963;BME280;47927;42.646;23.096;2023-05-08T00:02:30;92311.44;;;12.44;57.98
61963;BME280;47927;42.646;23.096;2023-05-08T00:04:56;92305.75;;;12.31;58.38
61963;BME280;47927;42.646;23.096;2023-05-08T00:07:21;92195.88;;;11.29;59.29
61963;BME280;47927;42.646;23.096;2023-05-08T00:09:47;92177.16;;;10.68;60.90
61963;BME280;47927;42.646;23.096;2023-05-08T00:12:13;92216.16;;;11.02;60.80
61963;BME280;47927;42.646;23.096;2023-05-08T00:14:38;92260.91;;;11.56;60.25
61963;BME280;47927;42.646;23.096;2023-05-08T00:17:04;92278.16;;;11.71;60.03
61963;BME280;47927;42.646;23.096;2023-05-08T00:19:29;92325.78;;;12.09;59.59
61963;BME280;47927;42.646;23.096;2023-05-08T00:21:55;92291.72;;;11.91;59.23
61963;BME280;47927;42.646;23.096;2023-05-08T00:24:20;92201.16;;;11.40;59.03
61963;BME280;47927;42.646;23.096;2023-05-08T00:26:46;92215.28;;;11.35;59.24
61963;BME280;47927;42.646;23.096;2023-05-08T00:29:12;92250.88;;;11.65;58.92
61963;BME280;47927;42.646;23.096;2023-05-08T00:31:37;92323.50;;;12.04;59.11
61963;BME280;47927;42.646;23.096;2023-05-08T00:34:03;92297.69;;;11.92;59.45
61963;BME280;47927;42.646;23.096;2023-05-08T00:36:28;92213.69;;;11.20;59.80
61963;BME280;47927;42.646;23.096;2023-05-08T00:38:54;92216.00;;;11.29;59.56
61963;BME280;47927;42.646;23.096;2023-05-08T00:41:20;92233.03;;;11.15;60.33
61963;BME280;47927;42.646;23.096;2023-05-08T00:43:46;92277.00;;;11.21;61.28
61963;BME280;47927;42.646;23.096;2023-05-08T00:46:11;92328.09;;;11.70;60.97
61963;BME280;47927;42.646;23.096;2023-05-08T00:48:38;92280.94;;;11.45;60.93
61963;BME280;47927;42.646;23.096;2023-05-08T00:51:05;92286.25;;;11.55;60.56
61963;BME280;47927;42.646;23.096;2023-05-08T00:53:35;92327.88;;;11.85;60.65
61963;BME280;47927;42.646;23.096;2023-05-08T00:56:01;92224.13;;;11.20;60.37
61963;BME280;47927;42.646;23.096;2023-05-08T00:58:28;92269.94;;;11.69;59.62
61963;BME280;47927;42.646;23.096;2023-05-08T01:00:56;92225.06;;;11.46;59.59
61963;BME280;47927;42.646;23.096;2023-05-08T01:03:22;92347.09;;;12.18;59.18
61963;BME280;47927;42.646;23.096;2023-05-08T01:05:48;92337.34;;;12.08;59.78
61963;BME280;47927;42.646;23.096;2023-05-08T01:08:14;92346.63;;;12.02;59.79
61963;BME280;47927;42.646;23.096;2023-05-08T01:11:10;92346.66;;;12.05;59.74
61963;BME280;47927;42.646;23.096;2023-05-08T01:16:49;92343.78;;;11.73;60.00
61963;BME280;47927;42.646;23.096;2023-05-08T01:35:55;92331.13;;;11.75;60.24
61963;BME280;47927;42.646;23.096;2023-05-08T01:38:31;92334.19;;;11.84;59.34
61963;BME280;47927;42.646;23.096;2023-05-08T01:41:08;92246.09;;;11.19;59.22
61963;BME280;47927;42.646;23.096;2023-05-08T01:46:17;92324.69;;;11.66;59.54
61963;BME280;47927;42.646;23.096;2023-05-08T01:48:48;92324.38;;;11.71;59.15
61963;BME280;47927;42.646;23.096;2023-05-08T01:51:22;92332.72;;;11.43;59.48
61963;BME280;47927;42.646;23.096;2023-05-08T01:53:59;92327.47;;;11.39;60.35
61963;BME280;47927;42.646;23.096;2023-05-08T01:56:29;92293.22;;;11.00;61.20
61963;BME280;47927;42.646;23.096;2023-05-08T01:58:56;92321.84;;;11.33;61.30
61963;BME280;47927;42.646;23.096;2023-05-08T02:01:28;92233.06;;;10.78;61.40
61963;BME280;47927;42.646;23.096;2023-05-08T02:03:56;92329.06;;;11.51;61.09
61963;BME280;47927;42.646;23.096;2023-05-08T02:06:24;92202.47;;;10.68;60.72
61963;BME280;47927;42.646;23.096;2023-05-08T02:08:52;92334.91;;;11.00;62.88
61963;BME280;47927;42.646;23.096;2023-05-08T02:11:19;92308.69;;;10.85;62.94
61963;BME280;47927;42.646;23.096;2023-05-08T02:13:46;92308.94;;;11.07;62.46
61963;BME280;47927;42.646;23.096;2023-05-08T02:16:13;92281.69;;;11.01;61.97
61963;BME280;47927;42.646;23.096;2023-05-08T02:18:43;92189.97;;;10.47;61.83
61963;BME280;47927;42.646;23.096;2023-05-08T02:21:11;92327.53;;;11.46;61.71
61963;BME280;47927;42.646;23.096;2023-05-08T02:23:40;92329.81;;;11.51;61.66
61963;BME280;47927;42.646;23.096;2023-05-08T02:26:07;92254.47;;;10.98;61.70
61963;BME280;47927;42.646;23.096;2023-05-08T02:28:35;92283.06;;;11.28;61.27
61963;BME280;47927;42.646;23.096;2023-05-08T02:31:01;92244.38;;;10.93;61.50
61963;BME280;47927;42.646;23.096;2023-05-08T02:33:28;92327.38;;;11.69;61.29
61963;BME280;47927;42.646;23.096;2023-05-08T02:35:57;92335.19;;;11.69;61.15
61963;BME280;47927;42.646;23.096;2023-05-08T02:38:24;92231.75;;;10.99;61.58
61963;BME280;47927;42.646;23.096;2023-05-08T02:40:56;92296.50;;;11.30;62.07
61963;BME280;47927;42.646;23.096;2023-05-08T02:43:23;92344.56;;;11.77;61.61
61963;BME280;47927;42.646;23.096;2023-05-08T02:45:55;92298.97;;;11.60;61.41
61963;BME280;47927;42.646;23.096;2023-05-08T02:48:55;92337.97;;;11.87;61.18
61963;BME280;47927;42.646;23.096;2023-05-08T02:54:46;92332.75;;;11.91;60.84
61963;BME280;47927;42.646;23.096;2023-05-08T03:00:18;92340.22;;;11.92;61.10
61963;BME280;47927;42.646;23.096;2023-05-08T03:02:48;92329.81;;;11.96;60.97
61963;BME280;47927;42.646;23.096;2023-05-08T03:05:29;92324.94;;;11.94;60.84
61963;BME280;47927;42.646;23.096;2023-05-08T03:07:58;92341.03;;;12.03;60.74
61963;BME280;47927;42.646;23.096;2023-05-08T03:10:28;92345.22;;;12.15;60.36
61963;BME280;47927;42.646;23.096;2023-05-08T03:12:57;92345.22;;;12.15;60.40
61963;BME280;47927;42.646;23.096;2023-05-08T03:15:26;92338.94;;;12.23;60.04
61963;BME280;47927;42.646;23.096;2023-05-08T03:17:56;92297.75;;;11.99;59.98
61963;BME280;47927;42.646;23.096;2023-05-08T03:20:25;92337.06;;;12.24;60.22
61963;BME280;47927;42.646;23.096;2023-05-08T03:22:53;92349.41;;;12.27;60.17
61963;BME280;47927;42.646;23.096;2023-05-08T03:25:20;92240.75;;;11.56;60.39
61963;BME280;47927;42.646;23.096;2023-05-08T03:27:46;92304.47;;;12.00;60.21
61963;BME280;47927;42.646;23.096;2023-05-08T03:30:14;92347.19;;;12.32;59.78
61963;BME280;47927;42.646;23.096;2023-05-08T03:32:45;92273.84;;;11.93;59.96
61963;BME280;47927;42.646;23.096;2023-05-08T03:35:12;92300.84;;;12.19;59.67
61963;BME280;47927;42.646;23.096;2023-05-08T03:37:39;92352.91;;;12.56;59.76
61963;BME280;47927;42.646;23.096;2023-05-08T03:40:06;92341.00;;;12.69;59.45
61963;BME280;47927;42.646;23.096;2023-05-08T03:42:33;92348.19;;;12.87;59.05
61963;BME280;47927;42.646;23.096;2023-05-08T03:44:59;92262.97;;;12.64;58.67
61963;BME280;47927;42.646;23.096;2023-05-08T03:47:27;92310.91;;;13.18;58.75
61963;BME280;47927;42.646;23.096;2023-05-08T03:49:53;92306.13;;;13.60;58.16
61963;BME280;47927;42.646;23.096;2023-05-08T03:52:19;92358.09;;;14.26;57.41
61963;BME280;47927;42.646;23.096;2023-05-08T03:54:45;92331.84;;;14.58;56.49
61963;BME280;47927;42.646;23.096;2023-05-08T03:57:12;92308.50;;;14.85;55.38
61963;BME280;47927;42.646;23.096;2023-05-08T03:59:49;92278.50;;;14.93;54.11
61963;BME280;47927;42.646;23.096;2023-05-08T04:02:24;92362.06;;;15.61;52.93
61963;BME280;47927;42.646;23.096;2023-05-08T04:05:05;92276.50;;;15.12;52.43
61963;BME280;47927;42.646;23.096;2023-05-08T04:07:46;92366.41;;;15.89;52.03
61963;BME280;47927;42.646;23.096;2023-05-08T04:10:21;92362.50;;;16.08;51.17
61963;BME280;47927;42.646;23.096;2023-05-08T04:13:11;92302.75;;;15.64;51.30
61963;BME280;47927;42.646;23.096;2023-05-08T04:15:51;92359.53;;;16.06;51.62
61963;BME280;47927;42.646;23.096;2023-05-08T04:18:44;92359.16;;;16.46;51.16
61963;BME280;47927;42.646;23.096;2023-05-08T04:21:11;92327.81;;;16.96;49.42
61963;BME280;47927;42.646;23.096;2023-05-08T04:23:40;92333.97;;;17.13;48.97
61963;BME280;47927;42.646;23.096;2023-05-08T04:26:08;92351.69;;;17.40;49.18
61963;BME280;47927;42.646;23.096;2023-05-08T04:28:36;92363.63;;;17.75;49.71
61963;BME280;47927;42.646;23.096;2023-05-08T04:31:02;92351.44;;;17.88;49.65
61963;BME280;47927;42.646;23.096;2023-05-08T04:33:29;92355.13;;;18.14;48.62
61963;BME280;47927;42.646;23.096;2023-05-08T04:35:56;92363.88;;;18.55;48.32
61963;BME280;47927;42.646;23.096;2023-05-08T04:38:25;92368.91;;;18.69;47.96
61963;BME280;47927;42.646;23.096;2023-05-08T04:40:51;92361.31;;;18.51;48.03
61963;BME280;47927;42.646;23.096;2023-05-08T04:43:16;92367.69;;;18.54;48.19
61963;BME280;47927;42.646;23.096;2023-05-08T04:45:42;92366.81;;;18.60;48.63
61963;BME280;47927;42.646;23.096;2023-05-08T04:48:07;92340.69;;;18.46;48.35
61963;BME280;47927;42.646;23.096;2023-05-08T04:50:33;92305.03;;;18.58;47.20
61963;BME280;47927;42.646;23.096;2023-05-08T04:52:59;92358.91;;;19.00;47.17
61963;BME280;47927;42.646;23.096;2023-05-08T04:55:25;92315.16;;;18.83;46.00
61963;BME280;47927;42.646;23.096;2023-05-08T04:57:51;92332.94;;;19.19;45.79
61963;BME280;47927;42.646;23.096;2023-05-08T05:00:17;92356.00;;;19.87;44.94
61963;BME280;47927;42.646;23.096;2023-05-08T05:02:44;92312.22;;;20.48;42.03
61963;BME280;47927;42.646;23.096;2023-05-08T05:05:10;92338.53;;;21.65;41.11
61963;BME280;47927;42.646;23.096;2023-05-08T05:07:36;92282.88;;;22.12;38.93
61963;BME280;47927;42.646;23.096;2023-05-08T05:10:02;92361.56;;;23.10;37.87
61963;BME280;47927;42.646;23.096;2023-05-08T05:12:30;92352.41;;;24.73;34.12
61963;BME280;47927;42.646;23.096;2023-05-08T05:14:55;92323.03;;;25.28;32.27
61963;BME280;47927;42.646;23.096;2023-05-08T05:17:22;92310.31;;;26.23;30.95
61963;BME280;47927;42.646;23.096;2023-05-08T05:19:48;92351.16;;;27.40;30.37
61963;BME280;47927;42.646;23.096;2023-05-08T05:22:13;92354.88;;;28.28;28.47
61963;BME280;47927;42.646;23.096;2023-05-08T05:24:39;92341.09;;;28.76;27.51
61963;BME280;47927;42.646;23.096;2023-05-08T05:27:06;92357.88;;;28.71;26.96
61963;BME280;47927;42.646;23.096;2023-05-08T05:29:32;92359.50;;;28.83;26.94
61963;BME280;47927;42.646;23.096;2023-05-08T05:38:26;92319.00;;;29.91;24.95
61963;BME280;47927;42.646;23.096;2023-05-08T05:47:43;92358.03;;;29.92;25.64
61963;BME280;47927;42.646;23.096;2023-05-08T05:50:09;92350.00;;;29.92;25.42
61963;BME280;47927;42.646;23.096;2023-05-08T05:52:35;92352.53;;;30.44;24.75
61963;BME280;47927;42.646;23.096;2023-05-08T05:55:00;92352.00;;;31.05;24.76
61963;BME280;47927;42.646;23.096;2023-05-08T05:57:48;92347.97;;;31.49;23.10
61963;BME280;47927;42.646;23.096;2023-05-08T06:00:16;92291.72;;;32.60;22.74
61963;BME280;47927;42.646;23.096;2023-05-08T06:02:46;92351.22;;;33.68;20.37
61963;BME280;47927;42.646;23.096;2023-05-08T06:08:27;92334.97;;;32.10;22.39
61963;BME280;47927;42.646;23.096;2023-05-08T06:10:54;92337.59;;;33.07;21.01
61963;BME280;47927;42.646;23.096;2023-05-08T06:13:20;92339.63;;;31.87;22.21
61963;BME280;47927;42.646;23.096;2023-05-08T06:15:46;92307.81;;;31.91;22.00
61963;BME280;47927;42.646;23.096;2023-05-08T06:18:12;92349.94;;;31.60;22.61
61963;BME280;47927;42.646;23.096;2023-05-08T06:20:38;92350.91;;;31.51;23.05
61963;BME280;47927;42.646;23.096;2023-05-08T06:23:04;92343.84;;;30.77;23.82
61963;BME280;47927;42.646;23.096;2023-05-08T06:25:32;92344.34;;;30.76;24.20
61963;BME280;47927;42.646;23.096;2023-05-08T06:28:01;92353.97;;;30.94;24.44
61963;BME280;47927;42.646;23.096;2023-05-08T06:30:27;92348.88;;;31.18;23.88
61963;BME280;47927;42.646;23.096;2023-05-08T06:32:53;92280.81;;;30.84;24.06
61963;BME280;47927;42.646;23.096;2023-05-08T06:35:19;92354.44;;;30.92;23.95
61963;BME280;47927;42.646;23.096;2023-05-08T06:37:45;92359.00;;;29.89;24.99
61963;BME280;47927;42.646;23.096;2023-05-08T06:40:11;92357.56;;;29.30;25.79
61963;BME280;47927;42.646;23.096;2023-05-08T06:42:38;92355.25;;;28.35;27.21
61963;BME280;47927;42.646;23.096;2023-05-08T06:45:04;92355.34;;;28.06;28.17
61963;BME280;47927;42.646;23.096;2023-05-08T06:47:30;92350.59;;;27.50;29.01
61963;BME280;47927;42.646;23.096;2023-05-08T06:49:56;92354.41;;;28.09;27.92
61963;BME280;47927;42.646;23.096;2023-05-08T06:52:21;92349.78;;;29.12;26.77
61963;BME280;47927;42.646;23.096;2023-05-08T06:54:50;92360.44;;;28.59;27.83
61963;BME280;47927;42.646;23.096;2023-05-08T06:57:15;92356.88;;;28.12;27.91
61963;BME280;47927;42.646;23.096;2023-05-08T06:59:41;92363.13;;;27.59;28.17
61963;BME280;47927;42.646;23.096;2023-05-08T07:02:07;92338.88;;;26.79;29.36
61963;BME280;47927;42.646;23.096;2023-05-08T07:04:35;92369.91;;;26.62;30.67
61963;BME280;47927;42.646;23.096;2023-05-08T07:07:00;92359.91;;;25.39;31.57
61963;BME280;47927;42.646;23.096;2023-05-08T07:09:26;92362.91;;;25.22;32.30
61963;BME280;47927;42.646;23.096;2023-05-08T07:11:52;92358.91;;;24.99;32.13
61963;BME280;47927;42.646;23.096;2023-05-08T07:14:17;92356.00;;;25.49;32.84
61963;BME280;47927;42.646;23.096;2023-05-08T07:16:43;92301.34;;;24.47;32.87
61963;BME280;47927;42.646;23.096;2023-05-08T07:19:08;92364.78;;;23.58;35.52
61963;BME280;47927;42.646;23.096;2023-05-08T07:21:34;92308.00;;;23.12;35.86
61963;BME280;47927;42.646;23.096;2023-05-08T07:23:59;92364.28;;;23.73;36.13
61963;BME280;47927;42.646;23.096;2023-05-08T07:26:25;92368.16;;;24.21;33.77
61963;BME280;47927;42.646;23.096;2023-05-08T07:28:50;92315.63;;;23.63;35.34
61963;BME280;47927;42.646;23.096;2023-05-08T07:31:19;92361.88;;;24.06;35.92
61963;BME280;47927;42.646;23.096;2023-05-08T07:37:31;92366.09;;;27.61;29.75
61963;BME280;47927;42.646;23.096;2023-05-08T07:39:57;92303.63;;;28.81;28.56
61963;BME280;47927;42.646;23.096;2023-05-08T07:42:23;92366.59;;;28.45;27.81
61963;BME280;47927;42.646;23.096;2023-05-08T07:44:48;92371.22;;;28.45;28.71
61963;BME280;47927;42.646;23.096;2023-05-08T07:47:14;92324.63;;;28.83;26.60
61963;BME280;47927;42.646;23.096;2023-05-08T07:49:39;92375.16;;;28.49;28.79
61963;BME280;47927;42.646;23.096;2023-05-08T07:52:05;92370.16;;;28.22;28.76
61963;BME280;47927;42.646;23.096;2023-05-08T07:54:30;92374.25;;;28.17;28.66
61963;BME280;47927;42.646;23.096;2023-05-08T07:56:56;92376.63;;;27.80;28.98
61963;BME280;47927;42.646;23.096;2023-05-08T07:59:21;92380.84;;;27.71;29.73
61963;BME280;47927;42.646;23.096;2023-05-08T08:01:47;92366.16;;;28.32;28.63
61963;BME280;47927;42.646;23.096;2023-05-08T08:04:12;92384.13;;;29.86;25.97
61963;BME280;47927;42.646;23.096;2023-05-08T08:06:39;92386.69;;;30.81;24.88
61963;BME280;47927;42.646;23.096;2023-05-08T08:09:05;92328.56;;;30.40;25.12
61963;BME280;47927;42.646;23.096;2023-05-08T08:11:31;92393.22;;;29.94;25.98
61963;BME280;47927;42.646;23.096;2023-05-08T08:13:57;92401.28;;;29.36;26.96
61963;BME280;47927;42.646;23.096;2023-05-08T08:16:22;92398.28;;;28.88;26.70
61963;BME280;47927;42.646;23.096;2023-05-08T08:18:48;92393.91;;;28.49;27.97
61963;BME280;47927;42.646;23.096;2023-05-08T08:21:13;92402.81;;;28.05;28.51
61963;BME280;47927;42.646;23.096;2023-05-08T08:23:39;92399.03;;;27.38;29.80
61963;BME280;47927;42.646;23.096;2023-05-08T08:26:05;92363.53;;;26.84;30.17
61963;BME280;47927;42.646;23.096;2023-05-08T08:28:31;92392.91;;;26.84;30.73
61963;BME280;47927;42.646;23.096;2023-05-08T08:30:56;92392.22;;;26.74;31.18
61963;BME280;47927;42.646;23.096;2023-05-08T08:33:22;92391.47;;;26.25;32.53
61963;BME280;47927;42.646;23.096;2023-05-08T08:35:47;92367.22;;;25.72;32.58
61963;BME280;47927;42.646;23.096;2023-05-08T08:41:31;92377.22;;;25.43;33.87
61963;BME280;47927;42.646;23.096;2023-05-08T08:43:57;92373.69;;;24.45;35.08
61963;BME280;47927;42.646;23.096;2023-05-08T08:46:24;92377.16;;;24.24;35.89
61963;BME280;47927;42.646;23.096;2023-05-08T08:48:52;92377.97;;;23.93;38.51
61963;BME280;47927;42.646;23.096;2023-05-08T08:51:31;92380.66;;;24.02;38.65
61963;BME280;47927;42.646;23.096;2023-05-08T08:54:08;92369.94;;;23.00;38.96
61963;BME280;47927;42.646;23.096;2023-05-08T08:56:39;92371.22;;;22.25;40.92
61963;BME280;47927;42.646;23.096;2023-05-08T08:59:07;92361.13;;;22.20;40.30
61963;BME280;47927;42.646;23.096;2023-05-08T09:01:35;92302.50;;;22.27;40.17
61963;BME280;47927;42.646;23.096;2023-05-08T09:04:03;92355.91;;;22.64;39.46
61963;BME280;47927;42.646;23.096;2023-05-08T09:06:29;92342.56;;;21.95;40.49
61963;BME280;47927;42.646;23.096;2023-05-08T09:08:55;92333.19;;;21.26;41.73
61963;BME280;47927;42.646;23.096;2023-05-08T09:11:23;92315.59;;;20.65;43.65
61963;BME280;47927;42.646;23.096;2023-05-08T09:13:49;92265.59;;;20.09;44.19
61963;BME280;47927;42.646;23.096;2023-05-08T09:16:14;92329.31;;;20.89;43.36
61963;BME280;47927;42.646;23.096;2023-05-08T09:18:40;92287.44;;;20.71;43.02
61963;BME280;47927;42.646;23.096;2023-05-08T09:21:05;92294.53;;;21.42;41.09
61963;BME280;47927;42.646;23.096;2023-05-08T09:23:31;92338.53;;;22.03;40.35
61963;BME280;47927;42.646;23.096;2023-05-08T09:25:59;92260.00;;;22.05;39.85
61963;BME280;47927;42.646;23.096;2023-05-08T09:28:25;92329.41;;;22.51;37.41
61963;BME280;47927;42.646;23.096;2023-05-08T09:30:56;92319.38;;;23.12;37.01
61963;BME280;47927;42.646;23.096;2023-05-08T09:33:24;92354.84;;;23.72;37.09
61963;BME280;47927;42.646;23.096;2023-05-08T09:35:50;92326.50;;;22.81;36.87
61963;BME280;47927;42.646;23.096;2023-05-08T09:38:32;92352.63;;;23.79;36.80
61963;BME280;47927;42.646;23.096;2023-05-08T09:41:19;92349.78;;;24.14;34.95
61963;BME280;47927;42.646;23.096;2023-05-08T09:44:02;92355.22;;;24.69;34.49
61963;BME280;47927;42.646;23.096;2023-05-08T09:46:29;92348.81;;;25.22;34.44
61963;BME280;47927;42.646;23.096;2023-05-08T09:48:59;92313.72;;;25.05;33.45
61963;BME280;47927;42.646;23.096;2023-05-08T09:52:00;92346.59;;;25.20;34.15
61963;BME280;47927;42.646;23.096;2023-05-08T09:54:26;92280.75;;;24.56;34.32
61963;BME280;47927;42.646;23.096;2023-05-08T09:56:52;92341.25;;;25.30;33.46
61963;BME280;47927;42.646;23.096;2023-05-08T09:59:32;92335.78;;;25.24;32.70
61963;BME280;47927;42.646;23.096;2023-05-08T10:01:57;92338.25;;;25.88;32.46
61963;BME280;47927;42.646;23.096;2023-05-08T10:04:32;92336.56;;;26.00;33.80
61963;BME280;47927;42.646;23.096;2023-05-08T10:06:58;92264.44;;;24.91;33.55
61963;BME280;47927;42.646;23.096;2023-05-08T10:09:24;92336.19;;;25.41;34.25
61963;BME280;47927;42.646;23.096;2023-05-08T10:11:50;92316.38;;;25.66;31.69
61963;BME280;47927;42.646;23.096;2023-05-08T10:14:16;92303.72;;;25.76;32.19
61963;BME280;47927;42.646;23.096;2023-05-08T10:16:44;92301.41;;;26.02;32.77
61963;BME280;47927;42.646;23.096;2023-05-08T10:19:17;92323.50;;;26.26;31.96
61963;BME280;47927;42.646;23.096;2023-05-08T10:21:50;92313.06;;;26.76;30.38
61963;BME280;47927;42.646;23.096;2023-05-08T10:24:20;92320.59;;;27.02;31.41
61963;BME280;47927;42.646;23.096;2023-05-08T10:27:40;92325.50;;;27.48;31.16
61963;BME280;47927;42.646;23.096;2023-05-08T10:29:53;92271.34;;;28.44;28.26
61963;BME280;47927;42.646;23.096;2023-05-08T10:32:21;92321.50;;;29.11;28.65
61963;BME280;47927;42.646;23.096;2023-05-08T10:34:57;92323.91;;;29.08;28.60
61963;BME280;47927;42.646;23.096;2023-05-08T10:37:23;92328.09;;;28.28;27.77
61963;BME280;47927;42.646;23.096;2023-05-08T10:39:49;92313.50;;;28.29;28.14
61963;BME280;47927;42.646;23.096;2023-05-08T10:42:16;92282.47;;;27.81;28.63
61963;BME280;47927;42.646;23.096;2023-05-08T10:44:42;92309.78;;;27.85;29.64
61963;BME280;47927;42.646;23.096;2023-05-08T10:47:26;92302.63;;;27.32;30.81
61963;BME280;47927;42.646;23.096;2023-05-08T10:50:09;92294.09;;;27.78;30.70
61963;BME280;47927;42.646;23.096;2023-05-08T10:52:49;92231.94;;;28.30;28.00
61963;BME280;47927;42.646;23.096;2023-05-08T10:55:37;92300.19;;;29.59;25.88
61963;BME280;47927;42.646;23.096;2023-05-08T10:58:04;92284.69;;;29.69;24.57
61963;BME280;47927;42.646;23.096;2023-05-08T11:03:15;92268.00;;;29.01;23.24
61963;BME280;47927;42.646;23.096;2023-05-08T11:05:45;92285.69;;;29.14;21.26
61963;BME280;47927;42.646;23.096;2023-05-08T11:08:17;92278.56;;;29.68;22.97
61963;BME280;47927;42.646;23.096;2023-05-08T11:10:47;92233.72;;;28.85;23.25
61963;BME280;47927;42.646;23.096;2023-05-08T11:13:16;92254.03;;;28.25;24.91
61963;BME280;47927;42.646;23.096;2023-05-08T11:15:50;92274.06;;;27.73;26.80
61963;BME280;47927;42.646;23.096;2023-05-08T11:27:14;92262.41;;;27.77;25.00
61963;BME280;47927;42.646;23.096;2023-05-08T11:29:40;92258.38;;;28.02;24.91
61963;BME280;47927;42.646;23.096;2023-05-08T11:32:06;92247.88;;;27.98;24.39
61963;BME280;47927;42.646;23.096;2023-05-08T11:37:22;92241.78;;;28.38;23.83
61963;BME280;47927;42.646;23.096;2023-05-08T11:39:48;92244.78;;;27.85;25.35
61963;BME280;47927;42.646;23.096;2023-05-08T11:45:07;92233.59;;;27.16;27.92
61963;BME280;47927;42.646;23.096;2023-05-08T11:47:41;92164.66;;;27.25;26.35
61963;BME280;47927;42.646;23.096;2023-05-08T11:50:16;92165.84;;;27.10;26.66
61963;BME280;47927;42.646;23.096;2023-05-08T11:52:42;92226.59;;;27.39;26.91
61963;BME280;47927;42.646;23.096;2023-05-08T11:55:10;92234.09;;;27.35;28.06
61963;BME280;47927;42.646;23.096;2023-05-08T11:57:36;92246.00;;;26.74;30.75
61963;BME280;47927;42.646;23.096;2023-05-08T12:00:04;92167.16;;;25.38;37.62
61963;BME280;47927;42.646;23.096;2023-05-08T12:02:41;92249.81;;;25.72;38.33
61963;BME280;47927;42.646;23.096;2023-05-08T12:05:08;92247.34;;;24.55;42.68
61963;BME280;47927;42.646;23.096;2023-05-08T12:07:46;92245.41;;;24.28;44.99
61963;BME280;47927;42.646;23.096;2023-05-08T12:10:15;92246.13;;;24.29;46.99
61963;BME280;47927;42.646;23.096;2023-05-08T12:12:42;92241.38;;;24.24;51.41
61963;BME280;47927;42.646;23.096;2023-05-08T12:15:09;92245.25;;;24.14;49.33
61963;BME280;47927;42.646;23.096;2023-05-08T12:17:35;92236.06;;;24.24;49.94
61963;BME280;47927;42.646;23.096;2023-05-08T12:20:17;92229.56;;;24.34;47.01
61963;BME280;47927;42.646;23.096;2023-05-08T12:22:49;92219.97;;;24.37;48.41
61963;BME280;47927;42.646;23.096;2023-05-08T12:25:16;92216.59;;;24.45;45.68
61963;BME280;47927;42.646;23.096;2023-05-08T12:27:42;92218.47;;;24.45;49.99
61963;BME280;47927;42.646;23.096;2023-05-08T12:30:10;92230.00;;;24.42;47.67
61963;BME280;47927;42.646;23.096;2023-05-08T12:32:39;92180.75;;;24.00;51.75
61963;BME280;47927;42.646;23.096;2023-05-08T12:35:08;92240.22;;;24.16;51.30
61963;BME280;47927;42.646;23.096;2023-05-08T12:37:34;92228.53;;;24.04;53.36
61963;BME280;47927;42.646;23.096;2023-05-08T12:40:02;92222.91;;;23.93;53.08
61963;BME280;47927;42.646;23.096;2023-05-08T12:42:44;92216.84;;;24.01;53.79
61963;BME280;47927;42.646;23.096;2023-05-08T12:45:45;92205.78;;;24.21;52.67
61963;BME280;47927;42.646;23.096;2023-05-08T12:48:12;92207.41;;;24.19;49.59
61963;BME280;47927;42.646;23.096;2023-05-08T12:50:43;92205.91;;;24.18;52.03
61963;BME280;47927;42.646;23.096;2023-05-08T12:53:10;92201.91;;;24.31;50.92
61963;BME280;47927;42.646;23.096;2023-05-08T12:55:38;92187.88;;;24.22;52.40
61963;BME280;47927;42.646;23.096;2023-05-08T12:58:06;92195.09;;;24.40;47.61
61963;BME280;47927;42.646;23.096;2023-05-08T13:00:42;92187.59;;;24.10;50.00
61963;BME280;47927;42.646;23.096;2023-05-08T13:03:10;92189.63;;;23.97;48.67
61963;BME280;47927;42.646;23.096;2023-05-08T13:05:41;92171.53;;;23.55;50.12
61963;BME280;47927;42.646;23.096;2023-05-08T13:08:07;92190.16;;;23.55;51.87
61963;BME280;47927;42.646;23.096;2023-05-08T13:10:51;92192.06;;;23.46;51.98
61963;BME280;47927;42.646;23.096;2023-05-08T13:13:19;92191.31;;;23.36;53.13
61963;BME280;47927;42.646;23.096;2023-05-08T13:15:46;92195.66;;;23.11;54.19
61963;BME280;47927;42.646;23.096;2023-05-08T13:18:12;92167.69;;;22.66;53.72
61963;BME280;47927;42.646;23.096;2023-05-08T13:20:39;92088.13;;;21.78;55.34
61963;BME280;47927;42.646;23.096;2023-05-08T13:23:06;92173.34;;;22.24;55.01
61963;BME280;47927;42.646;23.096;2023-05-08T13:25:32;92196.31;;;21.83;53.66
61963;BME280;47927;42.646;23.096;2023-05-08T13:27:58;92145.41;;;21.28;56.43
61963;BME280;47927;42.646;23.096;2023-05-08T13:30:24;92202.72;;;20.97;52.41
61963;BME280;47927;42.646;23.096;2023-05-08T13:32:51;92137.94;;;20.88;52.25
61963;BME280;47927;42.646;23.096;2023-05-08T13:35:17;92092.88;;;20.24;52.21
61963;BME280;47927;42.646;23.096;2023-05-08T13:37:43;92211.84;;;20.41;51.53
61963;BME280;47927;42.646;23.096;2023-05-08T13:40:10;92209.44;;;20.46;54.16
61963;BME280;47927;42.646;23.096;2023-05-08T13:42:42;92133.25;;;20.12;54.21
61963;BME280;47927;42.646;23.096;2023-05-08T13:45:08;92217.28;;;20.50;52.57
61963;BME280;47927;42.646;23.096;2023-05-08T13:47:42;92188.31;;;20.30;53.22
61963;BME280;47927;42.646;23.096;2023-05-08T13:50:08;92188.09;;;20.24;51.64
61963;BME280;47927;42.646;23.096;2023-05-08T13:52:35;92219.19;;;19.91;50.94
61963;BME280;47927;42.646;23.096;2023-05-08T13:55:01;92221.53;;;19.73;52.62
61963;BME280;47927;42.646;23.096;2023-05-08T13:57:27;92159.44;;;18.83;53.30
61963;BME280;47927;42.646;23.096;2023-05-08T13:59:52;92235.88;;;19.23;53.54
61963;BME280;47927;42.646;23.096;2023-05-08T14:06:05;92239.78;;;18.42;55.65
61963;BME280;47927;42.646;23.096;2023-05-08T14:08:31;92185.41;;;17.88;54.76
61963;BME280;47927;42.646;23.096;2023-05-08T14:10:56;92245.78;;;18.62;56.16